Time;durP1;ratioP1;P1;durP2;ratioP2;P2;SDS_P1;SDS_P2;PMS_P1;PMS_P2;Temp;Humidity;BMP_temperature;BMP_pressure;BME280_temperature;BME280_humidity;BME280_pressure;Samples;Min_cycle;Max_cycle;Signal;HPM_P1;HPM_P2
2023/02/09 00:02:34;;;;;;;18.23;12.70;;;;;;;1.08;50.82;100380.16;7003355;28;20316;-80
2023/02/09 00:05:58;;;;;;;27.40;16.17;;;;;;;0.71;50.94;100374.88;7002453;28;20296;-80
2023/02/09 00:09:20;;;;;;;29.23;14.60;;;;;;;1.04;51.19;100384.00;7005330;28;20312;-80
2023/02/09 00:16:25;;;;;;;22.67;14.07;;;;;;;0.61;51.22;100379.09;7006497;28;20658;-78
2023/02/09 00:19:46;;;;;;;36.33;19.53;;;;;;;0.93;49.97;100327.25;7006453;28;20289;-78
2023/02/09 00:23:09;;;;;;;36.13;18.60;;;;;;;1.25;49.82;100368.34;7006783;28;20360;-78
2023/02/09 00:26:31;;;;;;;20.07;12.60;;;;;;;0.94;50.02;100372.31;7005755;28;20293;-77
2023/02/09 00:29:52;;;;;;;43.00;21.27;;;;;;;0.96;49.39;100349.13;7006638;28;20226;-78
2023/02/09 00:33:14;;;;;;;35.47;20.43;;;;;;;0.70;50.45;100366.03;7006088;28;20219;-77
2023/02/09 00:36:35;;;;;;;25.53;13.30;;;;;;;0.80;50.00;100319.31;7006177;28;20241;-78
2023/02/09 00:39:58;;;;;;;20.60;11.90;;;;;;;0.99;50.66;100359.56;7006064;28;20278;-78
2023/02/09 00:43:19;;;;;;;20.57;12.10;;;;;;;1.10;49.23;100362.31;7006335;28;20222;-78
2023/02/09 00:46:41;;;;;;;24.50;13.23;;;;;;;0.98;49.72;100370.28;7010733;28;20193;-78
2023/02/09 00:50:05;;;;;;;19.17;13.13;;;;;;;0.87;50.28;100365.72;7014395;28;20234;-78
2023/02/09 00:53:27;;;;;;;34.83;16.53;;;;;;;0.72;50.63;100360.63;7006414;28;20243;-77
2023/02/09 00:56:50;;;;;;;30.37;16.70;;;;;;;0.42;50.64;100318.47;7005821;28;20755;-78
2023/02/09 01:00:13;;;;;;;39.03;20.57;;;;;;;0.42;51.41;100342.34;7005411;28;20288;-77
2023/02/09 01:03:35;;;;;;;48.50;21.70;;;;;;;0.39;50.85;100316.03;7005544;28;20264;-77
2023/02/09 01:06:57;;;;;;;48.93;21.40;;;;;;;0.45;50.41;100357.19;7005807;28;20298;-78
2023/02/09 01:10:18;;;;;;;44.83;19.10;;;;;;;0.07;51.26;100353.63;7005129;28;20205;-78
2023/02/09 01:13:42;;;;;;;39.03;16.20;;;;;;;0.15;52.02;100323.00;7005043;28;20695;-78
2023/02/09 01:17:03;;;;;;;31.93;16.70;;;;;;;0.10;51.63;100356.94;7005091;28;20726;-77
2023/02/09 01:20:25;;;;;;;42.17;19.03;;;;;;;0.05;52.08;100359.03;7003802;28;20299;-77
2023/02/09 01:23:47;;;;;;;46.37;20.40;;;;;;;0.14;51.98;100323.94;7005095;28;20234;-78
2023/02/09 01:27:08;;;;;;;48.97;20.83;;;;;;;0.59;52.10;100351.81;7005239;28;20658;-78
2023/02/09 01:30:31;;;;;;;45.43;21.17;;;;;;;0.68;50.78;100352.03;7004377;28;20206;-77
2023/02/09 01:33:53;;;;;;;25.23;13.70;;;;;;;0.70;49.94;100341.28;7005095;28;20272;-78
2023/02/09 01:37:15;;;;;;;21.60;12.13;;;;;;;0.60;50.59;100346.38;7005160;28;20214;-77
2023/02/09 01:40:36;;;;;;;16.60;12.00;;;;;;;0.72;50.58;100352.66;7004395;28;20240;-78
2023/02/09 01:44:00;;;;;;;22.40;13.13;;;;;;;0.32;49.95;100332.47;7004628;28;20229;-78
2023/02/09 01:47:23;;;;;;;22.80;13.53;;;;;;;0.14;51.02;100315.16;7004335;28;20217;-78
2023/02/09 01:50:47;;;;;;;18.50;11.57;;;;;;;-0.43;52.95;100348.13;7004883;28;20283;-77
2023/02/09 01:54:13;;;;;;;20.60;11.77;;;;;;;0.25;52.19;100333.84;7002901;28;20349;-77
2023/02/09 01:57:37;;;;;;;18.57;11.40;;;;;;;0.33;51.78;100342.97;7004643;28;20363;-78
2023/02/09 02:00:59;;;;;;;18.47;10.93;;;;;;;0.40;51.43;100335.44;7004659;28;20289;-77
2023/02/09 02:04:22;;;;;;;16.53;10.53;;;;;;;0.61;50.53;100341.94;7004357;28;20234;-78
2023/02/09 02:07:46;;;;;;;16.77;11.07;;;;;;;-0.13;51.68;100337.34;7004274;28;20302;-78
2023/02/09 02:11:09;;;;;;;17.67;10.97;;;;;;;-0.22;52.06;100300.84;7003983;28;20288;-78
2023/02/09 02:14:32;;;;;;;15.17;10.57;;;;;;;0.05;51.71;100311.31;7003255;28;20808;-76
2023/02/09 02:18:15;;;;;;;18.57;10.80;;;;;;;0.17;51.13;100307.81;7003815;28;20274;-78
2023/02/09 02:22:05;;;;;;;19.77;11.17;;;;;;;0.05;50.67;100298.06;7003908;28;20738;-78
2023/02/09 02:33:49;;;;;;;19.40;12.03;;;;;;;-0.29;52.26;100324.25;6922710;28;20207;-87
2023/02/09 02:37:19;;;;;;;14.70;9.90;;;;;;;-0.27;51.69;100301.16;6936149;28;20255;-85
2023/02/09 02:40:53;;;;;;;18.10;11.37;;;;;;;-0.73;52.62;100278.59;6936582;28;20204;-85
2023/02/09 02:44:25;;;;;;;19.57;10.90;;;;;;;-0.86;53.30;100272.41;6936870;28;20227;-85
2023/02/09 02:47:53;;;;;;;18.20;10.80;;;;;;;-0.72;53.70;100312.06;6921688;28;20224;-85
2023/02/09 02:51:22;;;;;;;15.63;10.30;;;;;;;-0.77;54.60;100308.84;6906768;28;20216;-85
2023/02/09 02:54:48;;;;;;;19.10;10.67;;;;;;;-0.23;53.97;100296.50;6907118;28;20552;-84
2023/02/09 02:58:15;;;;;;;15.70;10.30;;;;;;;-0.27;52.80;100304.63;6907185;28;20232;-85
2023/02/09 03:01:41;;;;;;;17.17;11.07;;;;;;;-0.02;52.16;100290.59;6908983;28;20232;-85
2023/02/09 03:05:07;;;;;;;17.67;10.13;;;;;;;0.30;51.48;100300.72;6921737;28;20242;-85
2023/02/09 03:08:31;;;;;;;17.70;11.63;;;;;;;-0.46;51.69;100305.09;6935113;28;20299;-85
2023/02/09 03:11:58;;;;;;;14.97;11.67;;;;;;;-0.72;53.80;100322.66;6935177;28;20214;-84
2023/02/09 03:37:48;;;;;;;20.83;9.87;;;;;;;-0.10;52.18;100333.53;7108364;27;20681;-85
2023/02/09 03:41:11;;;;;;;18.13;10.37;;;;;;;0.07;51.10;100335.91;7100630;28;20208;-86
2023/02/09 03:44:32;;;;;;;20.73;10.33;;;;;;;0.01;51.66;100327.53;7099315;27;20256;-86
2023/02/09 03:48:36;;;;;;;16.13;10.60;;;;;;;-0.23;51.38;100323.00;7098763;27;20220;-86
2023/02/09 03:52:16;;;;;;;14.50;10.07;;;;;;;-0.01;51.39;100337.38;7088168;27;20203;-87
2023/02/09 03:55:39;;;;;;;19.90;11.23;;;;;;;-0.11;51.22;100326.53;7095360;27;20228;-87
2023/02/09 03:59:01;;;;;;;15.97;10.87;;;;;;;-0.42;51.26;100282.75;7095219;27;20203;-85
2023/02/09 04:02:25;;;;;;;16.57;10.67;;;;;;;-0.58;51.37;100341.19;7096932;27;20215;-86
2023/02/09 04:05:50;;;;;;;17.13;10.73;;;;;;;-0.55;51.81;100333.03;7096301;27;20249;-86
2023/02/09 04:09:12;;;;;;;17.30;11.03;;;;;;;-0.78;52.69;100325.69;7097270;27;20200;-86
2023/02/09 04:13:04;;;;;;;15.23;10.53;;;;;;;-0.56;51.91;100325.16;7097625;27;20204;-87
2023/02/09 04:16:54;;;;;;;15.23;10.03;;;;;;;-0.78;51.65;100322.22;7094665;27;20364;-85
2023/02/09 04:20:20;;;;;;;15.53;10.47;;;;;;;-0.68;52.89;100340.06;7097261;27;20200;-86
2023/02/09 04:23:49;;;;;;;15.43;11.07;;;;;;;-0.53;51.69;100346.19;7096737;27;20196;-85
2023/02/09 04:27:12;;;;;;;16.20;10.63;;;;;;;-1.71;53.03;100256.69;7095913;27;20623;-85
2023/02/09 04:30:39;;;;;;;18.17;10.70;;;;;;;-1.77;53.93;100272.91;7096055;27;20207;-85
2023/02/09 04:34:01;;;;;;;16.83;11.13;;;;;;;-0.76;53.53;100346.78;7096747;27;20215;-85
2023/02/09 04:37:32;;;;;;;17.13;11.53;;;;;;;-0.86;52.52;100322.69;7095561;27;20259;-85
2023/02/09 04:40:55;;;;;;;15.27;11.23;;;;;;;-0.49;52.13;100345.03;7097733;27;20233;-85
2023/02/09 04:44:54;;;;;;;16.07;10.60;;;;;;;-0.62;52.25;100352.91;7098098;27;20213;-87
2023/02/09 04:53:35;;;;;;;;;;;;;;;;;;;;;
2023/02/09 05:01:27;;;;;;;21.00;11.97;;;;;;;-1.31;53.33;100296.44;6959443;28;20211;-85
2023/02/09 05:04:50;;;;;;;18.00;12.00;;;;;;;-0.84;53.23;100344.63;6958298;28;20210;-87
2023/02/09 05:08:11;;;;;;;16.80;11.50;;;;;;;-0.64;52.28;100328.34;6962312;28;21154;-86
2023/02/09 05:11:33;;;;;;;19.90;11.93;;;;;;;-0.79;52.92;100346.97;6963043;28;20211;-85
2023/02/09 05:14:56;;;;;;;19.10;11.90;;;;;;;-0.82;53.19;100342.75;6962000;28;20235;-87
2023/02/09 05:18:18;;;;;;;21.80;12.30;;;;;;;-0.91;52.61;100308.91;6961017;28;20234;-86
2023/02/09 05:21:40;;;;;;;19.73;11.70;;;;;;;-0.84;52.64;100331.38;6962368;28;20211;-86
2023/02/09 05:25:02;;;;;;;18.73;12.57;;;;;;;-0.58;52.61;100321.78;7032276;28;20200;-85
2023/02/09 05:28:24;;;;;;;19.33;12.33;;;;;;;-0.35;51.85;100326.44;7077796;28;20235;-86
2023/02/09 05:31:50;;;;;;;20.67;11.70;;;;;;;-0.43;52.00;100324.28;7077634;28;20444;-88
2023/02/09 05:35:12;;;;;;;18.13;11.23;;;;;;;-0.77;52.30;100308.03;7076959;28;20621;-87
2023/02/09 05:38:34;;;;;;;24.87;14.17;;;;;;;-0.56;52.75;100318.09;7076876;28;20224;-86
2023/02/09 05:42:23;;;;;;;19.63;12.73;;;;;;;-0.65;52.32;100309.88;7077700;28;20237;-86
2023/02/09 05:45:45;;;;;;;19.20;11.50;;;;;;;-0.82;52.16;100228.91;7047579;28;20216;-87
2023/02/09 05:49:11;;;;;;;18.43;12.17;;;;;;;-0.20;51.19;100297.13;7076967;28;20199;-86
2023/02/09 05:52:33;;;;;;;14.00;11.53;;;;;;;-0.54;52.10;100291.50;7076443;28;20272;-85
2023/02/09 05:55:55;;;;;;;18.50;11.93;;;;;;;-0.43;52.24;100311.03;7074880;28;20258;-86
2023/02/09 05:59:17;;;;;;;21.37;13.57;;;;;;;-0.38;51.89;100316.03;7074745;28;20211;-85
2023/02/09 06:02:39;;;;;;;20.20;13.07;;;;;;;-0.65;51.38;100278.09;7078207;28;20263;-87
2023/02/09 06:06:02;;;;;;;21.00;12.60;;;;;;;-0.62;52.35;100307.88;7074492;28;20242;-86
2023/02/09 06:09:32;;;;;;;22.53;13.70;;;;;;;-1.33;52.43;100253.38;7074911;28;20641;-85
2023/02/09 06:12:53;;;;;;;29.83;13.90;;;;;;;-1.08;52.75;100321.50;7074028;28;20531;-85
2023/02/09 06:16:15;;;;;;;21.80;13.47;;;;;;;-0.63;52.74;100324.72;7073634;28;20232;-85
2023/02/09 06:20:05;;;;;;;19.67;12.50;;;;;;;-0.57;51.85;100321.69;7075235;28;20200;-85
2023/02/09 06:23:44;;;;;;;24.23;15.03;;;;;;;-0.58;51.38;100309.41;7074851;28;20204;-86
2023/02/09 06:27:06;;;;;;;30.17;15.93;;;;;;;-0.68;52.25;100336.56;7073748;28;20227;-84
2023/02/09 06:30:28;;;;;;;26.53;15.03;;;;;;;-0.39;52.03;100346.13;7074803;28;20208;-83
2023/02/09 06:33:51;;;;;;;27.60;16.77;;;;;;;-0.41;51.75;100310.94;7075675;28;20219;-85
2023/02/09 06:37:13;;;;;;;24.50;15.27;;;;;;;-0.46;51.61;100356.28;7073532;28;20236;-85
2023/02/09 06:40:36;;;;;;;28.50;14.90;;;;;;;-0.83;51.94;100364.00;7072954;28;20551;-87
2023/02/09 06:43:58;;;;;;;26.23;15.03;;;;;;;-0.96;53.44;100363.09;7066699;28;20245;-87
2023/02/09 06:47:19;;;;;;;25.33;15.03;;;;;;;-0.82;52.57;100347.19;7069406;28;20230;-87
2023/02/09 06:50:41;;;;;;;26.20;14.97;;;;;;;-0.75;53.03;100364.38;7074843;28;20630;-86
2023/02/09 06:54:05;;;;;;;29.23;15.80;;;;;;;-0.57;51.38;100357.91;7074473;28;20200;-86
2023/02/09 06:57:28;;;;;;;18.17;12.97;;;;;;;-0.41;51.17;100370.09;7073742;28;20227;-88
2023/02/09 07:00:50;;;;;;;23.00;13.93;;;;;;;-1.10;52.10;100345.41;7072082;28;20223;-86
2023/02/09 07:04:12;;;;;;;22.10;14.73;;;;;;;-0.56;51.72;100379.00;7074573;28;20257;-86
2023/02/09 07:07:34;;;;;;;23.00;13.80;;;;;;;-1.38;52.18;100288.97;7068603;28;20223;-87
2023/02/09 07:10:57;;;;;;;28.60;16.00;;;;;;;-1.61;53.52;100358.31;7070607;28;20260;-86
2023/02/09 07:14:23;;;;;;;22.37;13.17;;;;;;;-2.13;54.19;100312.94;7075043;28;20227;-87
2023/02/09 07:17:45;;;;;;;21.27;13.47;;;;;;;-1.70;54.78;100401.16;7075440;28;20313;-88
2023/02/09 07:21:08;;;;;;;20.50;13.63;;;;;;;-1.03;53.98;100348.50;7070365;28;20233;-87
2023/02/09 07:24:30;;;;;;;23.63;14.23;;;;;;;-0.51;55.77;100399.91;7067661;28;20215;-85
2023/02/09 07:27:51;;;;;;;23.07;14.80;;;;;;;-0.74;53.19;100351.03;7062963;28;20361;-82
2023/02/09 07:31:16;;;;;;;21.77;14.43;;;;;;;-0.73;52.99;100399.56;7064574;28;20210;-82
2023/02/09 07:34:38;;;;;;;24.73;14.57;;;;;;;-1.43;55.04;100397.72;7064100;28;20249;-82
2023/02/09 07:38:00;;;;;;;24.67;14.83;;;;;;;-1.40;55.87;100407.25;7066397;28;20232;-84
2023/02/09 07:41:24;;;;;;;25.80;16.07;;;;;;;-0.48;54.02;100395.25;7072839;28;20227;-85
2023/02/09 07:44:46;;;;;;;25.13;13.80;;;;;;;-0.38;52.43;100354.00;7074236;28;20261;-84
2023/02/09 07:48:11;;;;;;;18.73;13.67;;;;;;;-0.67;52.63;100352.34;7076298;28;20219;-86
2023/02/09 07:51:33;;;;;;;21.70;14.43;;;;;;;-0.10;53.60;100402.44;7078689;28;20200;-85
2023/02/09 07:54:55;;;;;;;22.57;14.60;;;;;;;-0.09;51.95;100331.72;7076415;28;20232;-87
2023/02/09 07:58:18;;;;;;;19.67;13.50;;;;;;;0.48;51.54;100404.75;7069629;28;20248;-86
2023/02/09 08:01:40;;;;;;;22.10;13.30;;;;;;;-0.52;51.85;100324.91;7069107;28;20204;-84
2023/02/09 08:05:05;;;;;;;28.47;15.53;;;;;;;0.25;50.74;100323.22;7061443;28;20224;-82
2023/02/09 08:08:27;;;;;;;31.70;17.47;;;;;;;0.76;50.52;100325.81;7058609;28;20240;-81
2023/02/09 08:11:50;;;;;;;21.27;13.93;;;;;;;1.30;50.42;100396.28;7059628;28;20245;-79
2023/02/09 08:15:13;;;;;;;21.80;14.10;;;;;;;0.48;50.43;100303.94;7058898;28;20295;-79
2023/02/09 08:18:37;;;;;;;21.83;13.97;;;;;;;0.90;51.03;100400.00;7058258;28;20429;-80
2023/02/09 08:21:59;;;;;;;25.40;15.20;;;;;;;0.51;51.58;100402.75;7060950;28;20254;-79
2023/02/09 08:25:22;;;;;;;23.80;16.00;;;;;;;0.93;51.68;100391.00;7064863;28;20285;-79
2023/02/09 08:28:45;;;;;;;24.47;15.30;;;;;;;0.94;51.85;100396.19;7063118;28;20267;-80
2023/02/09 08:32:07;;;;;;;25.70;15.43;;;;;;;1.38;50.74;100401.06;7065961;28;20188;-80
2023/02/09 08:35:28;;;;;;;27.33;16.40;;;;;;;1.75;50.56;100390.34;7064559;28;20275;-80
2023/02/09 08:38:51;;;;;;;23.03;15.50;;;;;;;1.90;49.73;100406.97;7063367;28;20637;-80
2023/02/09 08:42:13;;;;;;;25.40;16.33;;;;;;;4.42;44.37;100357.47;7063156;28;20573;-81
2023/02/09 08:45:35;;;;;;;25.30;14.27;;;;;;;6.53;40.84;100373.22;7063556;28;20229;-81
2023/02/09 08:48:56;;;;;;;25.17;15.80;;;;;;;7.54;37.04;100358.19;7059615;28;20287;-81
2023/02/09 08:52:18;;;;;;;31.20;16.80;;;;;;;8.51;35.45;100364.50;7051417;28;20769;-82
2023/02/09 08:55:41;;;;;;;22.80;15.77;;;;;;;8.71;35.76;100379.44;7051241;28;20231;-82
2023/02/09 08:59:03;;;;;;;25.23;15.53;;;;;;;9.53;33.32;100369.94;7035653;28;20634;-81
2023/02/09 09:02:24;;;;;;;22.17;15.50;;;;;;;9.63;32.54;100381.44;7036100;28;20215;-81
2023/02/09 09:05:46;;;;;;;25.97;16.40;;;;;;;9.69;32.79;100326.94;7035814;28;20823;-82
2023/02/09 09:09:07;;;;;;;27.93;16.03;;;;;;;9.49;33.28;100371.25;7057149;28;20226;-82
2023/02/09 09:12:30;;;;;;;28.63;18.17;;;;;;;9.87;32.92;100362.69;7063991;28;20199;-81
2023/02/09 09:15:53;;;;;;;23.80;17.00;;;;;;;9.76;32.88;100341.44;7064390;28;20783;-81
2023/02/09 09:19:15;;;;;;;25.67;16.90;;;;;;;9.73;32.75;100358.75;7064082;28;20200;-81
2023/02/09 09:22:38;;;;;;;26.63;17.23;;;;;;;7.84;35.24;100339.91;7064109;28;20332;-81
2023/02/09 09:26:00;;;;;;;25.20;17.37;;;;;;;7.19;36.61;100313.25;7060712;28;20309;-82
2023/02/09 09:29:24;;;;;;;26.87;17.20;;;;;;;7.02;37.78;100385.59;7062178;28;20337;-80
2023/02/09 09:36:30;;;;;;;28.67;19.40;;;;;;;6.36;40.35;100390.00;7061727;28;20624;-82
2023/02/09 09:39:56;;;;;;;26.47;17.93;;;;;;;6.72;38.60;100399.19;7062059;28;20232;-82
2023/02/09 09:43:23;;;;;;;28.17;19.27;;;;;;;5.97;40.18;100332.06;7058943;28;20185;-81
2023/02/09 10:11:28;;;;;;;33.50;20.27;;;;;;;7.47;37.55;100360.59;7063536;28;20578;-81
2023/02/09 10:14:50;;;;;;;32.53;22.03;;;;;;;6.94;38.06;100359.50;7061648;28;20222;-81
2023/02/09 10:18:15;;;;;;;31.53;22.43;;;;;;;7.30;37.83;100404.28;7062506;28;20291;-81
2023/02/09 10:22:38;;;;;;;34.30;22.60;;;;;;;7.82;37.53;100392.06;7062390;28;20215;-81
2023/02/09 10:26:03;;;;;;;35.70;23.67;;;;;;;6.78;39.55;100402.13;7065137;28;20299;-81
2023/02/09 10:38:01;;;;;;;33.03;21.57;;;;;;;7.94;37.78;100407.84;7032196;28;20231;-81
2023/02/09 10:41:23;;;;;;;29.63;19.60;;;;;;;8.40;36.32;100386.22;7032469;28;20303;-81
2023/02/09 10:44:48;;;;;;;30.27;21.33;;;;;;;8.56;35.59;100335.31;7045885;28;20204;-81
2023/02/09 10:52:32;;;;;;;31.33;21.37;;;;;;;8.56;35.95;100337.16;7059996;28;20188;-81
2023/02/09 10:56:02;;;;;;;30.50;20.97;;;;;;;9.37;34.13;100373.38;7058899;28;20227;-81
2023/02/09 11:17:10;;;;;;;30.53;20.43;;;;;;;8.40;35.90;100327.09;7038037;28;20221;-81
2023/02/09 11:20:34;;;;;;;34.37;20.63;;;;;;;9.28;34.83;100316.97;7053723;28;20208;-81
2023/02/09 11:24:02;;;;;;;33.20;19.90;;;;;;;9.72;34.57;100338.22;7049417;28;20192;-81
2023/02/09 11:27:35;;;;;;;27.43;19.63;;;;;;;9.95;33.54;100346.53;7060128;28;20723;-81
2023/02/09 11:31:30;;;;;;;28.20;18.90;;;;;;;10.11;32.30;100296.25;7062597;28;20204;-81
2023/02/09 11:35:07;;;;;;;26.10;18.17;;;;;;;9.08;33.79;100257.16;7063360;28;20228;-80
2023/02/09 11:38:34;;;;;;;24.80;17.67;;;;;;;10.25;32.67;100336.03;7072021;28;20236;-80
2023/02/09 11:45:43;;;;;;;27.37;19.60;;;;;;;9.99;32.23;100259.00;7076374;28;20200;-80
2023/02/09 11:49:11;;;;;;;29.17;19.33;;;;;;;8.60;34.52;100319.72;7059930;28;20226;-79
2023/02/09 11:52:38;;;;;;;27.33;18.40;;;;;;;9.13;34.04;100304.28;7058972;28;20196;-80
2023/02/09 11:56:02;;;;;;;28.27;19.37;;;;;;;9.79;34.16;100315.00;7057844;28;20230;-80
2023/02/09 11:59:28;;;;;;;27.43;18.83;;;;;;;9.32;34.30;100284.19;7064202;28;20678;-80
2023/02/09 12:02:55;;;;;;;28.10;18.77;;;;;;;9.22;33.44;100291.53;7064356;28;20302;-81
2023/02/09 12:06:21;;;;;;;24.57;18.60;;;;;;;9.03;33.32;100255.97;7063367;28;20224;-80
2023/02/09 12:09:49;;;;;;;28.30;17.50;;;;;;;9.74;33.30;100279.63;7065010;28;20197;-84
2023/02/09 12:13:19;;;;;;;24.40;16.20;;;;;;;10.62;30.94;100274.38;7066638;28;20243;-81
2023/02/09 12:16:43;;;;;;;26.53;17.37;;;;;;;9.60;32.14;100247.09;7067557;28;20254;-82
2023/02/09 12:20:06;;;;;;;21.37;15.60;;;;;;;9.28;31.63;100277.44;7058084;28;20195;-81
2023/02/09 12:23:32;;;;;;;27.67;16.67;;;;;;;8.01;33.67;100288.06;7069471;28;20279;-83
2023/02/09 12:26:56;;;;;;;24.03;17.30;;;;;;;9.18;32.75;100290.19;7074696;28;20224;-84
2023/02/09 12:31:01;;;;;;;21.00;15.20;;;;;;;8.84;32.72;100279.56;7065778;28;20561;-81
2023/02/09 12:34:29;;;;;;;21.07;15.27;;;;;;;9.64;32.42;100267.31;7015872;27;20294;-83
2023/02/09 12:38:16;;;;;;;36.00;24.50;;;;;;;9.20;32.14;100290.00;7057937;28;20236;-79
2023/02/09 12:42:11;;;;;;;24.00;17.53;;;;;;;9.72;32.45;100276.28;7065325;28;20708;-81
2023/02/09 12:45:36;;;;;;;25.00;16.73;;;;;;;9.54;33.10;100278.22;7063667;28;20341;-80
2023/02/09 12:49:20;;;;;;;22.60;16.30;;;;;;;10.51;31.29;100263.09;7063450;28;20283;-82
2023/02/09 12:53:26;;;;;;;23.03;16.57;;;;;;;10.60;31.31;100237.78;7059327;28;20724;-82
2023/02/09 12:56:48;;;;;;;21.97;15.67;;;;;;;11.31;29.66;100268.31;7058191;28;20364;-82
2023/02/09 13:00:32;;;;;;;24.80;16.73;;;;;;;10.50;30.24;100264.13;7064689;28;20338;-82
2023/02/09 13:03:57;;;;;;;23.33;16.00;;;;;;;10.04;31.78;100233.25;7065345;28;20678;-82
2023/02/09 13:07:25;;;;;;;25.03;16.53;;;;;;;10.36;31.02;100217.09;7065148;28;20722;-82
2023/02/09 13:10:51;;;;;;;24.53;16.73;;;;;;;10.34;30.82;100261.41;7064882;28;20207;-82
2023/02/09 13:14:14;;;;;;;23.63;17.40;;;;;;;11.19;29.93;100264.31;7058966;28;20253;-82
2023/02/09 13:17:39;;;;;;;23.97;16.53;;;;;;;10.36;29.92;100254.00;7065138;28;20706;-82
2023/02/09 13:21:18;;;;;;;24.80;17.20;;;;;;;11.34;29.58;100255.31;7065302;28;20209;-82
2023/02/09 13:24:45;;;;;;;23.53;16.47;;;;;;;11.57;29.40;100248.09;7064179;28;20191;-81
2023/02/09 13:28:14;;;;;;;23.57;17.03;;;;;;;11.19;29.75;100250.81;7062087;28;20350;-83
2023/02/09 13:31:36;;;;;;;24.97;17.50;;;;;;;10.98;30.64;100264.03;7062427;28;20294;-82
2023/02/09 13:35:03;;;;;;;22.23;16.47;;;;;;;11.51;29.96;100259.63;7048088;28;20281;-82
2023/02/09 13:38:29;;;;;;;21.43;15.60;;;;;;;11.56;29.65;100251.00;7061365;28;20356;-80
2023/02/09 13:41:52;;;;;;;23.53;16.90;;;;;;;10.83;30.21;100212.63;7061808;28;20276;-82
2023/02/09 13:45:17;;;;;;;28.37;17.47;;;;;;;11.22;30.14;100254.00;7062030;28;20659;-80
2023/02/09 13:48:39;;;;;;;36.90;22.27;;;;;;;10.13;31.32;100208.00;7061549;28;20250;-80
2023/02/09 13:52:12;;;;;;;24.77;17.60;;;;;;;10.34;32.17;100259.53;7055431;28;20292;-80
2023/02/09 13:55:36;;;;;;;26.17;18.13;;;;;;;9.93;31.30;100270.44;7033620;28;20205;-80
2023/02/09 13:58:58;;;;;;;23.57;16.43;;;;;;;9.71;31.56;100282.66;7032585;28;20261;-79
2023/02/09 14:02:22;;;;;;;29.60;19.97;;;;;;;9.83;32.04;100283.19;7032887;28;20296;-83
2023/02/09 14:05:46;;;;;;;26.93;16.67;;;;;;;9.80;31.88;100243.13;7032207;28;20717;-82
2023/02/09 14:09:13;;;;;;;24.33;16.40;;;;;;;9.10;32.73;100247.06;7037268;28;20193;-82
2023/02/09 14:12:55;;;;;;;24.97;17.50;;;;;;;9.76;32.40;100272.25;7032768;28;20203;-81
2023/02/09 14:16:18;;;;;;;25.17;17.27;;;;;;;9.93;32.15;100236.22;7032948;28;20224;-80
2023/02/09 14:19:47;;;;;;;26.73;17.97;;;;;;;9.69;32.33;100238.06;7032717;28;20315;-80
2023/02/09 14:23:14;;;;;;;26.50;17.77;;;;;;;10.10;33.19;100286.47;7035309;28;20189;-81
2023/02/09 14:26:43;;;;;;;25.97;17.90;;;;;;;10.07;32.81;100272.50;7032685;28;20264;-80
2023/02/09 14:30:16;;;;;;;27.40;18.70;;;;;;;10.11;32.17;100263.91;7034893;28;20181;-81
2023/02/09 14:33:37;;;;;;;28.87;19.10;;;;;;;9.97;32.66;100264.53;7036944;28;20271;-81
2023/02/09 14:37:01;;;;;;;25.60;18.67;;;;;;;10.70;32.06;100298.63;7034810;28;20312;-80
2023/02/09 14:40:30;;;;;;;26.27;17.70;;;;;;;10.98;31.08;100291.84;7035853;28;20686;-79
2023/02/09 14:43:58;;;;;;;24.00;17.57;;;;;;;11.02;31.06;100274.31;7031034;28;20214;-83
2023/02/09 14:47:38;;;;;;;27.33;17.90;;;;;;;11.09;31.29;100288.78;7029949;28;20232;-77
2023/02/09 14:51:01;;;;;;;25.93;18.67;;;;;;;10.82;32.39;100294.59;7031856;28;20563;-81
2023/02/09 14:54:25;;;;;;;25.87;18.10;;;;;;;10.50;33.29;100275.72;7029797;28;20205;-76
2023/02/09 14:57:47;;;;;;;29.63;19.17;;;;;;;11.11;32.15;100296.72;7031417;28;20294;-79
2023/02/09 15:01:08;;;;;;;25.87;18.97;;;;;;;10.71;32.31;100286.84;7056062;28;20284;-79
2023/02/09 15:04:31;;;;;;;24.10;18.03;;;;;;;10.64;33.73;100285.81;7058719;28;20333;-79
2023/02/09 15:07:56;;;;;;;29.80;18.60;;;;;;;10.68;33.49;100276.38;7058677;28;20244;-80
2023/02/09 15:15:00;;;;;;;26.87;17.77;;;;;;;9.86;34.53;100237.91;7059250;28;20177;-80
2023/02/09 15:18:23;;;;;;;31.07;20.17;;;;;;;10.28;34.23;100297.13;7057697;28;20239;-78
2023/02/09 15:21:46;;;;;;;29.57;18.60;;;;;;;10.20;34.42;100314.13;7059363;28;20207;-79
2023/02/09 15:25:08;;;;;;;28.80;19.57;;;;;;;10.06;34.34;100304.00;7062123;28;20214;-78
2023/02/09 15:28:32;;;;;;;28.67;19.40;;;;;;;9.93;34.61;100310.84;7057679;28;20317;-79
2023/02/09 15:31:54;;;;;;;24.93;18.53;;;;;;;10.53;35.43;100306.91;7058920;28;20558;-78
2023/02/09 15:35:16;;;;;;;29.70;20.20;;;;;;;10.61;34.97;100315.00;7052080;28;20220;-79
2023/02/09 15:38:39;;;;;;;40.23;24.00;;;;;;;10.50;36.18;100313.47;7028376;28;20237;-79
2023/02/09 15:49:18;;;;;;;28.67;17.93;;;;;;;10.20;35.38;100316.81;7035102;28;20197;-80
2023/02/09 15:52:40;;;;;;;27.13;19.33;;;;;;;9.79;35.48;100290.75;7035939;28;20215;-82
2023/02/09 15:56:03;;;;;;;26.67;17.93;;;;;;;8.93;35.99;100300.97;7037143;28;20636;-83
2023/02/09 15:59:24;;;;;;;32.70;17.87;;;;;;;9.29;35.67;100345.56;7038661;28;20224;-81
2023/02/09 16:03:03;;;;;;;27.50;16.73;;;;;;;9.58;36.83;100332.59;7037937;28;20208;-83
2023/02/09 16:06:25;;;;;;;27.33;17.53;;;;;;;8.57;36.77;100334.31;6997077;28;20715;-80
2023/02/09 16:09:47;;;;;;;23.97;16.90;;;;;;;8.71;36.79;100363.31;7029019;28;20204;-79
2023/02/09 16:18:05;;;;;;;26.20;17.57;;;;;;;8.29;37.71;100358.72;7044194;28;20223;-84
2023/02/09 16:21:41;;;;;;;28.70;18.27;;;;;;;7.76;39.01;100347.03;7067980;28;20202;-85
2023/02/09 16:25:05;;;;;;;31.43;19.47;;;;;;;7.11;40.64;100349.84;7069337;28;20208;-84
2023/02/09 16:28:27;;;;;;;30.20;18.77;;;;;;;6.75;42.07;100389.03;7068663;28;20226;-84
2023/02/09 16:31:48;;;;;;;29.50;19.53;;;;;;;6.47;42.41;100373.78;7066732;28;20207;-86
2023/02/09 16:35:11;;;;;;;30.07;20.03;;;;;;;6.06;43.18;100325.00;7066499;28;20211;-86
2023/02/09 16:38:34;;;;;;;36.17;20.37;;;;;;;6.34;43.76;100370.56;7066472;28;20233;-83
2023/02/09 16:41:58;;;;;;;31.10;19.53;;;;;;;6.39;43.24;100354.06;7071675;28;20207;-85
2023/02/09 16:45:26;;;;;;;36.23;19.70;;;;;;;6.67;43.09;100393.41;7075871;28;20209;-84
2023/02/09 16:48:48;;;;;;;36.57;20.80;;;;;;;6.67;42.78;100385.34;7056467;28;20228;-85
2023/02/09 16:52:16;;;;;;;33.60;19.27;;;;;;;6.18;43.67;100399.72;7046642;28;20201;-87
2023/02/09 16:56:14;;;;;;;35.87;21.03;;;;;;;5.52;45.62;100403.00;7048834;28;20233;-86
2023/02/09 16:59:37;;;;;;;35.33;21.00;;;;;;;5.08;46.78;100411.34;7038073;28;20260;-86
2023/02/09 17:03:03;;;;;;;37.97;20.70;;;;;;;5.33;46.29;100407.41;7051684;28;20571;-85
2023/02/09 17:06:31;;;;;;;33.17;20.83;;;;;;;5.56;45.59;100374.16;7049445;28;20324;-86
2023/02/09 17:14:59;;;;;;;35.97;21.73;;;;;;;6.14;44.56;100413.53;6855605;28;20753;-86
2023/02/09 17:18:23;;;;;;;40.30;22.87;;;;;;;6.40;44.33;100406.63;6982348;28;20228;-87
2023/02/09 17:21:45;;;;;;;36.20;21.87;;;;;;;6.31;43.19;100402.97;6991289;28;20235;-88
2023/02/09 17:25:13;;;;;;;31.87;20.83;;;;;;;5.52;44.84;100421.75;6991085;28;20232;-86
2023/02/09 17:28:35;;;;;;;35.33;20.73;;;;;;;5.56;45.17;100425.84;6990713;28;20226;-86
2023/02/09 17:31:59;;;;;;;36.43;23.23;;;;;;;5.34;45.88;100434.03;7004718;28;20210;-86
2023/02/09 17:35:22;;;;;;;35.30;20.83;;;;;;;5.65;45.05;100352.78;7016336;28;20210;-86
2023/02/09 17:38:45;;;;;;;37.93;21.53;;;;;;;6.18;43.60;100441.72;7015437;28;20308;-87
2023/02/09 17:42:30;;;;;;;38.67;22.33;;;;;;;6.25;43.84;100437.50;7016394;28;20210;-85
2023/02/09 17:45:52;;;;;;;43.80;19.80;;;;;;;5.98;43.42;100400.66;7009864;28;20943;-86
2023/02/09 17:49:16;;;;;;;31.87;19.57;;;;;;;5.77;43.79;100458.75;7029217;28;20198;-86
2023/02/09 17:52:38;;;;;;;53.60;32.50;;;;;;;5.54;45.00;100459.06;7067697;28;20207;-85